sensor_id;sensor_type;location;lat;lon;timestamp;pressure;altitude;pressure_sealevel;temperature;humidity
73551;BME280;61816;53.582;10.096;2023-09-30T00:01:09;54539.06;;;-144.73;100.00
73551;BME280;61816;53.582;10.096;2023-09-30T00:03:35;54514.44;;;-144.73;100.00
73551;BME280;61816;53.582;10.096;2023-09-30T00:06:00;54551.38;;;-144.73;100.00
73551;BME280;61816;53.582;10.096;2023-09-30T00:08:26;54576.00;;;-144.73;100.00
73551;BME280;61816;53.582;10.096;2023-09-30T00:10:52;54555.47;;;-144.73;100.00
73551;BME280;61816;53.582;10.096;2023-09-30T00:13:20;54555.47;;;-144.73;100.00
73551;BME280;61816;53.582;10.096;2023-09-30T00:15:45;54563.69;;;-144.73;100.00
73551;BME280;61816;53.582;10.096;2023-09-30T00:18:10;54604.75;;;-144.73;100.00
73551;BME280;61816;53.582;10.096;2023-09-30T00:20:36;54539.06;;;-144.73;100.00
73551;BME280;61816;53.582;10.096;2023-09-30T00:23:01;54526.75;;;-144.73;100.00
73551;BME280;61816;53.582;10.096;2023-09-30T00:25:27;54530.84;;;-144.73;100.00
73551;BME280;61816;53.582;10.096;2023-09-30T00:27:53;54555.47;;;-144.73;100.00
73551;BME280;61816;53.582;10.096;2023-09-30T00:30:18;54545.22;;;-144.73;100.00
73551;BME280;61816;53.582;10.096;2023-09-30T00:32:44;54522.63;;;-144.73;100.00
73551;BME280;61816;53.582;10.096;2023-09-30T00:35:12;54547.28;;;-144.73;100.00
73551;BME280;61816;53.582;10.096;2023-09-30T00:37:38;54502.13;;;-144.73;100.00
73551;BME280;61816;53.582;10.096;2023-09-30T00:40:05;54555.47;;;-144.73;100.00
73551;BME280;61816;53.582;10.096;2023-09-30T00:42:30;54514.44;;;-144.73;100.00
73551;BME280;61816;53.582;10.096;2023-09-30T00:44:56;54551.38;;;-144.73;100.00
73551;BME280;61816;53.582;10.096;2023-09-30T00:47:22;54563.69;;;-144.73;100.00
73551;BME280;61816;53.582;10.096;2023-09-30T00:49:49;54514.44;;;-144.73;100.00
73551;BME280;61816;53.582;10.096;2023-09-30T00:52:16;54514.44;;;-144.73;100.00
73551;BME280;61816;53.582;10.096;2023-09-30T00:54:42;54526.75;;;-144.73;100.00
73551;BME280;61816;53.582;10.096;2023-09-30T00:57:09;54530.84;;;-144.73;100.00
73551;BME280;61816;53.582;10.096;2023-09-30T00:59:35;54539.06;;;-144.73;100.00
73551;BME280;61816;53.582;10.096;2023-09-30T01:02:01;54567.81;;;-144.73;100.00
73551;BME280;61816;53.582;10.096;2023-09-30T01:04:27;54567.81;;;-144.73;100.00
73551;BME280;61816;53.582;10.096;2023-09-30T01:06:53;54522.63;;;-144.73;100.00
73551;BME280;61816;53.582;10.096;2023-09-30T01:09:19;54547.28;;;-144.73;100.00
73551;BME280;61816;53.582;10.096;2023-09-30T01:11:45;54543.16;;;-144.73;100.00
73551;BME280;61816;53.582;10.096;2023-09-30T01:14:27;54547.28;;;-144.73;100.00
73551;BME280;61816;53.582;10.096;2023-09-30T01:16:53;54555.47;;;-144.73;100.00
73551;BME280;61816;53.582;10.096;2023-09-30T01:19:19;54530.84;;;-144.73;100.00
73551;BME280;61816;53.582;10.096;2023-09-30T01:21:45;54555.47;;;-144.73;100.00
73551;BME280;61816;53.582;10.096;2023-09-30T01:24:14;54539.06;;;-144.73;100.00
73551;BME280;61816;53.582;10.096;2023-09-30T01:26:40;54547.28;;;-144.73;100.00
73551;BME280;61816;53.582;10.096;2023-09-30T01:29:05;54567.81;;;-144.73;100.00
73551;BME280;61816;53.582;10.096;2023-09-30T01:31:31;54485.69;;;-144.73;100.00
73551;BME280;61816;53.582;10.096;2023-09-30T01:33:56;54539.06;;;-144.73;100.00
73551;BME280;61816;53.582;10.096;2023-09-30T01:36:22;54555.47;;;-144.73;100.00
73551;BME280;61816;53.582;10.096;2023-09-30T01:38:47;54506.22;;;-144.73;100.00
73551;BME280;61816;53.582;10.096;2023-09-30T01:41:12;54547.28;;;-144.73;100.00
73551;BME280;61816;53.582;10.096;2023-09-30T01:43:38;54510.31;;;-144.73;100.00
73551;BME280;61816;53.582;10.096;2023-09-30T01:46:03;54524.69;;;-144.73;100.00
73551;BME280;61816;53.582;10.096;2023-09-30T01:48:30;54573.97;;;-144.73;100.00
73551;BME280;61816;53.582;10.096;2023-09-30T01:50:55;54559.59;;;-144.73;100.00
73551;BME280;61816;53.582;10.096;2023-09-30T01:53:21;54502.13;;;-144.73;100.00
73551;BME280;61816;53.582;10.096;2023-09-30T01:55:46;54539.06;;;-144.73;100.00
73551;BME280;61816;53.582;10.096;2023-09-30T01:58:13;54571.91;;;-144.73;100.00
73551;BME280;61816;53.582;10.096;2023-09-30T02:00:38;54551.38;;;-144.73;100.00
73551;BME280;61816;53.582;10.096;2023-09-30T02:03:04;54553.44;;;-144.73;100.00
73551;BME280;61816;53.582;10.096;2023-09-30T02:05:29;54555.47;;;-144.73;100.00
73551;BME280;61816;53.582;10.096;2023-09-30T02:07:54;54547.28;;;-144.73;100.00
73551;BME280;61816;53.582;10.096;2023-09-30T02:10:20;54573.97;;;-144.73;100.00
73551;BME280;61816;53.582;10.096;2023-09-30T02:12:46;54541.13;;;-144.73;100.00
73551;BME280;61816;53.582;10.096;2023-09-30T02:15:12;54528.81;;;-144.73;100.00
73551;BME280;61816;53.582;10.096;2023-09-30T02:17:38;54547.28;;;-144.73;100.00
73551;BME280;61816;53.582;10.096;2023-09-30T02:20:04;54526.75;;;-144.73;100.00
73551;BME280;61816;53.582;10.096;2023-09-30T02:22:38;54551.38;;;-144.73;100.00
73551;BME280;61816;53.582;10.096;2023-09-30T02:25:03;54518.53;;;-144.73;100.00
73551;BME280;61816;53.582;10.096;2023-09-30T02:27:33;54555.47;;;-144.73;100.00
73551;BME280;61816;53.582;10.096;2023-09-30T02:29:58;54539.06;;;-144.73;100.00
73551;BME280;61816;53.582;10.096;2023-09-30T02:32:23;54547.28;;;-144.73;100.00
73551;BME280;61816;53.582;10.096;2023-09-30T02:34:49;54514.44;;;-144.73;100.00
73551;BME280;61816;53.582;10.096;2023-09-30T02:37:15;54539.06;;;-144.73;100.00
73551;BME280;61816;53.582;10.096;2023-09-30T02:39:41;54567.81;;;-144.73;100.00
73551;BME280;61816;53.582;10.096;2023-09-30T02:42:06;54571.91;;;-144.73;100.00
73551;BME280;61816;53.582;10.096;2023-09-30T02:44:31;54543.16;;;-144.73;100.00
73551;BME280;61816;53.582;10.096;2023-09-30T02:46:57;54580.13;;;-144.73;100.00
73551;BME280;61816;53.582;10.096;2023-09-30T02:49:22;54588.31;;;-144.73;100.00
73551;BME280;61816;53.582;10.096;2023-09-30T02:51:48;54588.31;;;-144.73;100.00
73551;BME280;61816;53.582;10.096;2023-09-30T02:54:15;54576.00;;;-144.73;100.00
73551;BME280;61816;53.582;10.096;2023-09-30T02:56:41;54592.44;;;-144.73;100.00
73551;BME280;61816;53.582;10.096;2023-09-30T02:59:06;54578.06;;;-144.73;100.00
73551;BME280;61816;53.582;10.096;2023-09-30T03:01:33;54563.69;;;-144.73;100.00
73551;BME280;61816;53.582;10.096;2023-09-30T03:03:58;54551.38;;;-144.73;100.00
73551;BME280;61816;53.582;10.096;2023-09-30T03:06:24;54600.63;;;-144.73;100.00
73551;BME280;61816;53.582;10.096;2023-09-30T03:08:49;54555.47;;;-144.73;100.00
73551;BME280;61816;53.582;10.096;2023-09-30T03:11:14;54596.53;;;-144.73;100.00
73551;BME280;61816;53.582;10.096;2023-09-30T03:13:40;54551.38;;;-144.73;100.00
73551;BME280;61816;53.582;10.096;2023-09-30T03:16:08;54539.06;;;-144.73;100.00
73551;BME280;61816;53.582;10.096;2023-09-30T03:18:33;54576.00;;;-144.73;100.00
73551;BME280;61816;53.582;10.096;2023-09-30T03:21:00;54580.13;;;-144.73;100.00
73551;BME280;61816;53.582;10.096;2023-09-30T03:23:27;54576.00;;;-144.73;100.00
73551;BME280;61816;53.582;10.096;2023-09-30T03:25:59;54551.38;;;-144.73;100.00
73551;BME280;61816;53.582;10.096;2023-09-30T03:28:25;54543.16;;;-144.73;100.00
73551;BME280;61816;53.582;10.096;2023-09-30T03:30:50;54559.59;;;-144.73;100.00
73551;BME280;61816;53.582;10.096;2023-09-30T03:33:15;54526.75;;;-144.73;100.00
73551;BME280;61816;53.582;10.096;2023-09-30T03:35:42;54563.69;;;-144.73;100.00
73551;BME280;61816;53.582;10.096;2023-09-30T03:38:07;54541.13;;;-144.73;100.00
73551;BME280;61816;53.582;10.096;2023-09-30T03:40:35;54539.06;;;-144.73;100.00
73551;BME280;61816;53.582;10.096;2023-09-30T03:43:03;54539.06;;;-144.73;100.00
73551;BME280;61816;53.582;10.096;2023-09-30T03:45:30;54539.06;;;-144.73;100.00
73551;BME280;61816;53.582;10.096;2023-09-30T03:47:58;54539.06;;;-144.73;100.00
73551;BME280;61816;53.582;10.096;2023-09-30T03:50:23;54555.47;;;-144.73;100.00
73551;BME280;61816;53.582;10.096;2023-09-30T03:52:49;54563.69;;;-144.73;100.00
73551;BME280;61816;53.582;10.096;2023-09-30T03:55:18;54547.28;;;-144.73;100.00
73551;BME280;61816;53.582;10.096;2023-09-30T03:57:45;54530.84;;;-144.73;100.00
73551;BME280;61816;53.582;10.096;2023-09-30T04:00:14;54555.47;;;-144.73;100.00
73551;BME280;61816;53.582;10.096;2023-09-30T04:02:43;54551.38;;;-144.73;100.00
73551;BME280;61816;53.582;10.096;2023-09-30T04:05:10;54555.47;;;-144.73;100.00
73551;BME280;61816;53.582;10.096;2023-09-30T04:07:39;54584.22;;;-144.73;100.00
73551;BME280;61816;53.582;10.096;2023-09-30T04:10:04;54555.47;;;-144.73;100.00
73551;BME280;61816;53.582;10.096;2023-09-30T04:12:30;54555.47;;;-144.73;100.00
73551;BME280;61816;53.582;10.096;2023-09-30T04:14:58;54543.16;;;-144.73;100.00
73551;BME280;61816;53.582;10.096;2023-09-30T04:17:23;54588.31;;;-144.73;100.00
73551;BME280;61816;53.582;10.096;2023-09-30T04:19:49;54555.47;;;-144.73;100.00
73551;BME280;61816;53.582;10.096;2023-09-30T04:22:17;54547.28;;;-144.73;100.00
73551;BME280;61816;53.582;10.096;2023-09-30T04:24:42;54571.91;;;-144.73;100.00
73551;BME280;61816;53.582;10.096;2023-09-30T04:27:07;54555.47;;;-144.73;100.00
73551;BME280;61816;53.582;10.096;2023-09-30T04:29:33;54551.38;;;-144.73;100.00
73551;BME280;61816;53.582;10.096;2023-09-30T04:31:59;54580.13;;;-144.73;100.00
73551;BME280;61816;53.582;10.096;2023-09-30T04:34:25;54555.47;;;-144.73;100.00
73551;BME280;61816;53.582;10.096;2023-09-30T04:36:53;54555.47;;;-144.73;100.00
73551;BME280;61816;53.582;10.096;2023-09-30T04:39:18;54580.13;;;-144.73;100.00
73551;BME280;61816;53.582;10.096;2023-09-30T04:41:44;54551.38;;;-144.73;100.00
73551;BME280;61816;53.582;10.096;2023-09-30T04:44:09;54567.81;;;-144.73;100.00
73551;BME280;61816;53.582;10.096;2023-09-30T04:46:38;54555.47;;;-144.73;100.00
73551;BME280;61816;53.582;10.096;2023-09-30T04:49:14;54592.44;;;-144.73;100.00
73551;BME280;61816;53.582;10.096;2023-09-30T04:51:40;54567.81;;;-144.73;100.00
73551;BME280;61816;53.582;10.096;2023-09-30T04:54:06;54594.47;;;-144.73;100.00
73551;BME280;61816;53.582;10.096;2023-09-30T04:56:35;54563.69;;;-144.73;100.00
73551;BME280;61816;53.582;10.096;2023-09-30T04:59:01;54559.59;;;-144.73;100.00
73551;BME280;61816;53.582;10.096;2023-09-30T05:01:27;54539.06;;;-144.73;100.00
73551;BME280;61816;53.582;10.096;2023-09-30T05:03:53;54580.13;;;-144.73;100.00
73551;BME280;61816;53.582;10.096;2023-09-30T05:06:18;54567.81;;;-144.73;100.00
73551;BME280;61816;53.582;10.096;2023-09-30T05:08:44;54555.47;;;-144.73;100.00
73551;BME280;61816;53.582;10.096;2023-09-30T05:11:09;54563.69;;;-144.73;100.00
73551;BME280;61816;53.582;10.096;2023-09-30T05:13:38;54559.59;;;-144.73;100.00
73551;BME280;61816;53.582;10.096;2023-09-30T05:16:03;54571.91;;;-144.73;100.00
73551;BME280;61816;53.582;10.096;2023-09-30T05:18:29;54563.69;;;-144.73;100.00
73551;BME280;61816;53.582;10.096;2023-09-30T05:20:55;54539.06;;;-144.73;100.00
73551;BME280;61816;53.582;10.096;2023-09-30T05:23:20;54547.28;;;-144.73;100.00
73551;BME280;61816;53.582;10.096;2023-09-30T05:25:46;54559.59;;;-144.73;100.00
73551;BME280;61816;53.582;10.096;2023-09-30T05:28:11;54567.81;;;-144.73;100.00
73551;BME280;61816;53.582;10.096;2023-09-30T05:30:39;54559.59;;;-144.73;100.00
73551;BME280;61816;53.582;10.096;2023-09-30T05:33:06;54530.84;;;-144.73;100.00
73551;BME280;61816;53.582;10.096;2023-09-30T05:35:31;54596.53;;;-144.73;100.00
73551;BME280;61816;53.582;10.096;2023-09-30T05:37:57;54551.38;;;-144.73;100.00
73551;BME280;61816;53.582;10.096;2023-09-30T05:40:23;54543.16;;;-144.73;100.00
73551;BME280;61816;53.582;10.096;2023-09-30T05:42:54;54588.31;;;-144.73;100.00
73551;BME280;61816;53.582;10.096;2023-09-30T05:45:22;54557.53;;;-144.73;100.00
73551;BME280;61816;53.582;10.096;2023-09-30T05:47:49;54553.44;;;-144.73;100.00
73551;BME280;61816;53.582;10.096;2023-09-30T05:50:14;54555.47;;;-144.73;100.00
73551;BME280;61816;53.582;10.096;2023-09-30T05:52:44;54551.38;;;-144.73;100.00
73551;BME280;61816;53.582;10.096;2023-09-30T05:55:10;54582.16;;;-144.73;100.00
73551;BME280;61816;53.582;10.096;2023-09-30T05:57:36;54539.06;;;-144.73;100.00
73551;BME280;61816;53.582;10.096;2023-09-30T06:00:03;54518.53;;;-144.73;100.00
73551;BME280;61816;53.582;10.096;2023-09-30T06:02:53;54520.59;;;-144.73;100.00
73551;BME280;61816;53.582;10.096;2023-09-30T06:05:20;54559.59;;;-144.73;100.00
73551;BME280;61816;53.582;10.096;2023-09-30T06:07:47;54539.06;;;-144.73;100.00
73551;BME280;61816;53.582;10.096;2023-09-30T06:10:13;54555.47;;;-144.73;100.00
73551;BME280;61816;53.582;10.096;2023-09-30T06:12:44;54526.75;;;-144.73;100.00
73551;BME280;61816;53.582;10.096;2023-09-30T06:15:10;54547.28;;;-144.73;100.00
73551;BME280;61816;53.582;10.096;2023-09-30T06:17:35;54588.31;;;-144.73;100.00
73551;BME280;61816;53.582;10.096;2023-09-30T06:20:04;54545.22;;;-144.73;100.00
73551;BME280;61816;53.582;10.096;2023-09-30T06:22:33;54580.13;;;-144.73;100.00
73551;BME280;61816;53.582;10.096;2023-09-30T06:24:59;54547.28;;;-144.73;100.00
73551;BME280;61816;53.582;10.096;2023-09-30T06:27:24;54539.06;;;-144.73;100.00
73551;BME280;61816;53.582;10.096;2023-09-30T06:29:49;54539.06;;;-144.73;100.00
73551;BME280;61816;53.582;10.096;2023-09-30T06:32:15;54530.84;;;-144.73;100.00
73551;BME280;61816;53.582;10.096;2023-09-30T06:34:41;54561.63;;;-144.73;100.00
73551;BME280;61816;53.582;10.096;2023-09-30T06:37:06;54551.38;;;-144.73;100.00
73551;BME280;61816;53.582;10.096;2023-09-30T06:39:32;54543.16;;;-144.73;100.00
73551;BME280;61816;53.582;10.096;2023-09-30T06:41:57;54563.69;;;-144.73;100.00
73551;BME280;61816;53.582;10.096;2023-09-30T06:44:22;54555.47;;;-144.73;100.00
73551;BME280;61816;53.582;10.096;2023-09-30T06:46:50;54567.81;;;-144.73;100.00
73551;BME280;61816;53.582;10.096;2023-09-30T06:49:16;54567.81;;;-144.73;100.00
73551;BME280;61816;53.582;10.096;2023-09-30T06:51:42;54551.38;;;-144.73;100.00
73551;BME280;61816;53.582;10.096;2023-09-30T06:54:07;54516.47;;;-144.73;100.00
73551;BME280;61816;53.582;10.096;2023-09-30T06:56:33;54559.59;;;-144.73;100.00
73551;BME280;61816;53.582;10.096;2023-09-30T06:58:58;54555.47;;;-144.73;100.00
73551;BME280;61816;53.582;10.096;2023-09-30T07:01:25;54559.59;;;-144.73;100.00
73551;BME280;61816;53.582;10.096;2023-09-30T07:03:50;54590.38;;;-144.73;100.00
73551;BME280;61816;53.582;10.096;2023-09-30T07:06:23;54559.59;;;-144.73;100.00
73551;BME280;61816;53.582;10.096;2023-09-30T07:08:49;54590.38;;;-144.73;100.00
73551;BME280;61816;53.582;10.096;2023-09-30T07:11:15;54576.00;;;-144.73;100.00
73551;BME280;61816;53.582;10.096;2023-09-30T07:13:40;54571.91;;;-144.73;100.00
73551;BME280;61816;53.582;10.096;2023-09-30T07:16:05;54539.06;;;-144.73;100.00
73551;BME280;61816;53.582;10.096;2023-09-30T07:18:31;54555.47;;;-144.73;100.00
73551;BME280;61816;53.582;10.096;2023-09-30T07:20:56;54543.16;;;-144.73;100.00
73551;BME280;61816;53.582;10.096;2023-09-30T07:23:22;54551.38;;;-144.73;100.00
73551;BME280;61816;53.582;10.096;2023-09-30T07:25:47;54551.38;;;-144.73;100.00
73551;BME280;61816;53.582;10.096;2023-09-30T07:28:14;54530.84;;;-144.73;100.00
73551;BME280;61816;53.582;10.096;2023-09-30T07:30:39;54563.69;;;-144.73;100.00
73551;BME280;61816;53.582;10.096;2023-09-30T07:33:05;54551.38;;;-144.73;100.00
73551;BME280;61816;53.582;10.096;2023-09-30T07:35:32;54576.00;;;-144.73;100.00
73551;BME280;61816;53.582;10.096;2023-09-30T07:37:57;54569.84;;;-144.73;100.00
73551;BME280;61816;53.582;10.096;2023-09-30T07:40:23;54586.28;;;-144.73;100.00
73551;BME280;61816;53.582;10.096;2023-09-30T07:42:48;54571.91;;;-144.73;100.00
73551;BME280;61816;53.582;10.096;2023-09-30T07:45:15;54539.06;;;-144.73;100.00
73551;BME280;61816;53.582;10.096;2023-09-30T07:47:43;54584.22;;;-144.73;100.00
73551;BME280;61816;53.582;10.096;2023-09-30T07:50:09;54578.06;;;-144.73;100.00
73551;BME280;61816;53.582;10.096;2023-09-30T07:52:35;54539.06;;;-144.73;100.00
73551;BME280;61816;53.582;10.096;2023-09-30T07:55:01;54541.13;;;-144.73;100.00
73551;BME280;61816;53.582;10.096;2023-09-30T07:57:26;54526.75;;;-144.73;100.00
73551;BME280;61816;53.582;10.096;2023-09-30T07:59:52;54557.53;;;-144.73;100.00
73551;BME280;61816;53.582;10.096;2023-09-30T08:02:17;54571.91;;;-144.73;100.00
73551;BME280;61816;53.582;10.096;2023-09-30T08:04:46;54539.06;;;-144.73;100.00
73551;BME280;61816;53.582;10.096;2023-09-30T08:07:12;54592.44;;;-144.73;100.00
73551;BME280;61816;53.582;10.096;2023-09-30T08:09:38;54551.38;;;-144.73;100.00
73551;BME280;61816;53.582;10.096;2023-09-30T08:12:04;54481.59;;;-144.73;100.00
73551;BME280;61816;53.582;10.096;2023-09-30T08:14:30;54543.16;;;-144.73;100.00
73551;BME280;61816;53.582;10.096;2023-09-30T08:16:55;54604.75;;;-144.73;100.00
73551;BME280;61816;53.582;10.096;2023-09-30T08:19:21;54563.69;;;-144.73;100.00
73551;BME280;61816;53.582;10.096;2023-09-30T08:21:47;54567.81;;;-144.73;100.00
73551;BME280;61816;53.582;10.096;2023-09-30T08:24:13;54524.69;;;-144.73;100.00
73551;BME280;61816;53.582;10.096;2023-09-30T08:26:38;54547.28;;;-144.73;100.00
73551;BME280;61816;53.582;10.096;2023-09-30T08:29:03;54539.06;;;-144.73;100.00
73551;BME280;61816;53.582;10.096;2023-09-30T08:31:29;54567.81;;;-144.73;100.00
73551;BME280;61816;53.582;10.096;2023-09-30T08:33:55;54543.16;;;-144.73;100.00
73551;BME280;61816;53.582;10.096;2023-09-30T08:36:20;54522.63;;;-144.73;100.00
73551;BME280;61816;53.582;10.096;2023-09-30T08:38:46;54516.47;;;-144.73;100.00
73551;BME280;61816;53.582;10.096;2023-09-30T08:41:33;54539.06;;;-144.73;100.00
73551;BME280;61816;53.582;10.096;2023-09-30T08:44:03;54563.69;;;-144.73;100.00
73551;BME280;61816;53.582;10.096;2023-09-30T08:46:33;54526.75;;;-144.73;100.00
73551;BME280;61816;53.582;10.096;2023-09-30T08:49:04;54555.47;;;-144.73;100.00
73551;BME280;61816;53.582;10.096;2023-09-30T08:51:31;54563.69;;;-144.73;100.00
73551;BME280;61816;53.582;10.096;2023-09-30T08:53:58;54559.59;;;-144.73;100.00
73551;BME280;61816;53.582;10.096;2023-09-30T08:56:29;54520.59;;;-144.73;100.00
73551;BME280;61816;53.582;10.096;2023-09-30T08:58:57;54555.47;;;-144.73;100.00
73551;BME280;61816;53.582;10.096;2023-09-30T09:01:24;54539.06;;;-144.73;100.00
73551;BME280;61816;53.582;10.096;2023-09-30T09:03:50;54576.00;;;-144.73;100.00
73551;BME280;61816;53.582;10.096;2023-09-30T09:06:22;54543.16;;;-144.73;100.00
73551;BME280;61816;53.582;10.096;2023-09-30T09:08:47;54539.06;;;-144.73;100.00
73551;BME280;61816;53.582;10.096;2023-09-30T09:11:13;54539.06;;;-144.73;100.00
73551;BME280;61816;53.582;10.096;2023-09-30T09:13:51;54555.47;;;-144.73;100.00
73551;BME280;61816;53.582;10.096;2023-09-30T09:16:22;54541.13;;;-144.73;100.00
73551;BME280;61816;53.582;10.096;2023-09-30T09:18:48;54559.59;;;-144.73;100.00
73551;BME280;61816;53.582;10.096;2023-09-30T09:21:16;54539.06;;;-144.73;100.00
73551;BME280;61816;53.582;10.096;2023-09-30T09:23:44;54571.91;;;-144.73;100.00
73551;BME280;61816;53.582;10.096;2023-09-30T09:26:32;54514.44;;;-144.73;100.00
73551;BME280;61816;53.582;10.096;2023-09-30T09:29:01;54518.53;;;-144.73;100.00
73551;BME280;61816;53.582;10.096;2023-09-30T09:31:33;54489.81;;;-144.73;100.00
73551;BME280;61816;53.582;10.096;2023-09-30T09:34:03;54555.47;;;-144.73;100.00
73551;BME280;61816;53.582;10.096;2023-09-30T09:36:39;54567.81;;;-144.73;100.00
73551;BME280;61816;53.582;10.096;2023-09-30T09:39:06;54590.38;;;-144.73;100.00
73551;BME280;61816;53.582;10.096;2023-09-30T09:41:31;54516.47;;;-144.73;100.00
73551;BME280;61816;53.582;10.096;2023-09-30T09:43:58;54541.13;;;-144.73;100.00
73551;BME280;61816;53.582;10.096;2023-09-30T09:46:24;54512.38;;;-144.73;100.00
73551;BME280;61816;53.582;10.096;2023-09-30T09:48:52;54498.00;;;-144.73;100.00
73551;BME280;61816;53.582;10.096;2023-09-30T09:51:20;54481.59;;;-144.73;100.00
73551;BME280;61816;53.582;10.096;2023-09-30T09:53:46;54526.75;;;-144.73;100.00
73551;BME280;61816;53.582;10.096;2023-09-30T09:56:15;54518.53;;;-144.73;100.00
73551;BME280;61816;53.582;10.096;2023-09-30T09:58:40;54563.69;;;-144.73;100.00
73551;BME280;61816;53.582;10.096;2023-09-30T10:01:09;54539.06;;;-144.73;100.00
73551;BME280;61816;53.582;10.096;2023-09-30T10:03:36;54510.31;;;-144.73;100.00
73551;BME280;61816;53.582;10.096;2023-09-30T10:06:03;54543.16;;;-144.73;100.00
73551;BME280;61816;53.582;10.096;2023-09-30T10:08:39;54506.22;;;-144.73;100.00
73551;BME280;61816;53.582;10.096;2023-09-30T10:11:06;54543.16;;;-144.73;100.00
73551;BME280;61816;53.582;10.096;2023-09-30T10:13:54;54506.22;;;-144.73;100.00
73551;BME280;61816;53.582;10.096;2023-09-30T10:19:21;54543.16;;;-144.73;100.00
73551;BME280;61816;53.582;10.096;2023-09-30T10:24:51;54543.16;;;-144.73;100.00
73551;BME280;61816;53.582;10.096;2023-09-30T10:35:20;54489.81;;;-144.73;100.00
73551;BME280;61816;53.582;10.096;2023-09-30T10:37:46;54518.53;;;-144.73;100.00
73551;BME280;61816;53.582;10.096;2023-09-30T10:40:40;54477.47;;;-144.73;100.00
73551;BME280;61816;53.582;10.096;2023-09-30T10:43:29;54489.81;;;-144.73;100.00
73551;BME280;61816;53.582;10.096;2023-09-30T10:45:56;54510.31;;;-144.73;100.00
73551;BME280;61816;53.582;10.096;2023-09-30T10:50:57;54539.06;;;-144.73;100.00
73551;BME280;61816;53.582;10.096;2023-09-30T10:53:26;54518.53;;;-144.73;100.00
73551;BME280;61816;53.582;10.096;2023-09-30T10:55:59;54530.84;;;-144.73;100.00
73551;BME280;61816;53.582;10.096;2023-09-30T10:58:44;54522.63;;;-144.73;100.00
73551;BME280;61816;53.582;10.096;2023-09-30T11:01:11;54477.47;;;-144.73;100.00
73551;BME280;61816;53.582;10.096;2023-09-30T11:03:38;54518.53;;;-144.73;100.00
73551;BME280;61816;53.582;10.096;2023-09-30T11:06:03;54493.91;;;-144.73;100.00
73551;BME280;61816;53.582;10.096;2023-09-30T11:08:29;54469.28;;;-144.73;100.00
73551;BME280;61816;53.582;10.096;2023-09-30T11:10:55;54498.00;;;-144.73;100.00
73551;BME280;61816;53.582;10.096;2023-09-30T11:13:22;54479.53;;;-144.73;100.00
73551;BME280;61816;53.582;10.096;2023-09-30T11:15:47;54514.44;;;-144.73;100.00
73551;BME280;61816;53.582;10.096;2023-09-30T11:18:24;54452.84;;;-144.73;100.00
73551;BME280;61816;53.582;10.096;2023-09-30T11:20:49;54526.75;;;-144.73;100.00
73551;BME280;61816;53.582;10.096;2023-09-30T11:23:15;54485.69;;;-144.73;100.00
73551;BME280;61816;53.582;10.096;2023-09-30T11:25:41;54489.81;;;-144.73;100.00
73551;BME280;61816;53.582;10.096;2023-09-30T11:28:35;54522.63;;;-144.73;97.98
73551;BME280;61816;53.582;10.096;2023-09-30T11:31:02;54498.00;;;-144.73;95.44
73551;BME280;61816;53.582;10.096;2023-09-30T11:33:28;54493.91;;;-144.73;95.28
73551;BME280;61816;53.582;10.096;2023-09-30T11:36:03;54473.38;;;-144.73;94.17
73551;BME280;61816;53.582;10.096;2023-09-30T11:38:35;54489.81;;;-144.73;92.64
73551;BME280;61816;53.582;10.096;2023-09-30T11:41:05;54522.63;;;-144.73;90.48
73551;BME280;61816;53.582;10.096;2023-09-30T11:43:32;54528.81;;;-144.73;89.52
73551;BME280;61816;53.582;10.096;2023-09-30T11:46:06;54491.84;;;-144.73;88.14
73551;BME280;61816;53.582;10.096;2023-09-30T11:48:35;54481.59;;;-144.73;88.11
73551;BME280;61816;53.582;10.096;2023-09-30T11:51:02;54502.13;;;-144.73;89.11
73551;BME280;61816;53.582;10.096;2023-09-30T11:53:29;54514.44;;;-144.73;89.76
73551;BME280;61816;53.582;10.096;2023-09-30T11:55:59;54481.59;;;-144.73;87.19
73551;BME280;61816;53.582;10.096;2023-09-30T11:58:28;54518.53;;;-144.73;88.83
73551;BME280;61816;53.582;10.096;2023-09-30T12:00:54;54477.47;;;-144.73;89.30
73551;BME280;61816;53.582;10.096;2023-09-30T12:03:20;54506.22;;;-144.73;90.85
73551;BME280;61816;53.582;10.096;2023-09-30T12:05:47;54506.22;;;-144.73;91.59
73551;BME280;61816;53.582;10.096;2023-09-30T12:08:13;54502.13;;;-144.73;92.78
73551;BME280;61816;53.582;10.096;2023-09-30T12:10:39;54561.63;;;-144.73;91.66
73551;BME280;61816;53.582;10.096;2023-09-30T12:13:05;54502.13;;;-144.73;90.81
73551;BME280;61816;53.582;10.096;2023-09-30T12:15:30;54522.63;;;-144.73;93.10
73551;BME280;61816;53.582;10.096;2023-09-30T12:17:56;54495.97;;;-144.73;92.12
73551;BME280;61816;53.582;10.096;2023-09-30T12:20:22;54465.16;;;-144.73;95.21
73551;BME280;61816;53.582;10.096;2023-09-30T12:22:48;54489.81;;;-144.73;89.50
73551;BME280;61816;53.582;10.096;2023-09-30T12:25:14;54539.06;;;-144.73;89.64
73551;BME280;61816;53.582;10.096;2023-09-30T12:27:40;54539.06;;;-144.73;86.81
73551;BME280;61816;53.582;10.096;2023-09-30T12:30:06;54512.38;;;-144.73;87.63
73551;BME280;61816;53.582;10.096;2023-09-30T12:32:32;54518.53;;;-144.73;92.49
73551;BME280;61816;53.582;10.096;2023-09-30T12:35:01;54514.44;;;-144.73;92.15
73551;BME280;61816;53.582;10.096;2023-09-30T12:37:33;54473.38;;;-144.73;88.54